createdAt,value
2022-10-29T00:03:51.149Z,74781.22
2022-10-29T00:14:01.014Z,74783.25
2022-10-29T00:24:03.230Z,74775.16
2022-10-29T00:34:10.649Z,74773.13
2022-10-29T00:44:18.217Z,74771.09
2022-10-29T00:54:20.422Z,74775.16
2022-10-29T01:04:25.471Z,74767.06
2022-10-29T01:14:39.728Z,74777.19
2022-10-29T01:24:44.857Z,74791.34
2022-10-29T01:34:58.502Z,74787.28
2022-10-29T01:45:14.153Z,74773.13
2022-10-29T01:55:23.643Z,74781.22
2022-10-29T02:05:25.544Z,74785.28
2022-10-29T02:15:42.264Z,74795.38
2022-10-29T02:25:44.698Z,74785.28
2022-10-29T02:35:49.102Z,74767.06
2022-10-29T02:45:51.234Z,74771.09
2022-10-29T02:55:57.370Z,74750.88
2022-10-29T03:06:05.298Z,74746.84
2022-10-29T03:16:07.262Z,74734.69
2022-10-29T03:26:12.216Z,74722.56
2022-10-29T03:36:14.368Z,74702.31
2022-10-29T03:46:17.918Z,74686.13
2022-10-29T03:56:19.914Z,74704.34
2022-10-29T04:06:24.374Z,74714.47
2022-10-29T04:16:28.656Z,74714.47
2022-10-29T04:36:59.687Z,74684.09
2022-10-29T04:47:04.355Z,74678.03
2022-10-29T04:57:06.381Z,74669.94
2022-10-29T05:07:10.746Z,74659.81
2022-10-29T05:17:12.760Z,74663.88
2022-10-29T05:27:17.061Z,74674.00
2022-10-29T05:37:19.371Z,74678.03
2022-10-29T05:47:21.490Z,74671.97
2022-10-29T05:57:23.626Z,74676.00
2022-10-29T06:07:26.395Z,74661.84
2022-10-29T06:17:28.455Z,74676.00
2022-10-29T06:27:46.211Z,74651.75
2022-10-29T06:37:52.878Z,74657.81
2022-10-29T06:48:00.299Z,74554.63
2022-10-29T06:58:04.562Z,74475.72
2022-10-29T07:08:06.696Z,74390.75
2022-10-29T07:18:12.029Z,74297.69
2022-10-29T07:28:16.646Z,74243.06
2022-10-29T07:38:18.694Z,74224.84
2022-10-29T07:48:21.688Z,74216.75
2022-10-29T07:58:27.386Z,74192.47
2022-10-29T08:08:31.829Z,74220.81
2022-10-29T08:18:33.933Z,74212.72
2022-10-29T08:28:38.418Z,74234.97
2022-10-29T08:38:42.775Z,74283.53
2022-10-29T08:48:53.070Z,74301.72
2022-10-29T08:59:17.970Z,74261.25
2022-10-29T09:09:43.908Z,74315.88
2022-10-29T09:19:51.022Z,74350.28
2022-10-29T09:30:09.955Z,74358.38
2022-10-29T09:40:20.933Z,74366.47
2022-10-29T09:50:34.282Z,74370.50
2022-10-29T10:00:36.240Z,74410.97
2022-10-29T10:10:51.648Z,74455.47
2022-10-29T10:21:09.180Z,74439.31
2022-10-29T10:31:16.116Z,74433.22
2022-10-29T10:41:26.544Z,74459.53
2022-10-29T10:51:29.197Z,74493.94
2022-10-29T11:02:01.782Z,74471.66
2022-10-29T11:12:16.052Z,74423.13
2022-10-29T11:22:34.745Z,74406.94
2022-10-29T11:33:02.095Z,74413.00
2022-10-29T11:43:11.501Z,74429.19
2022-10-29T11:53:19.505Z,74439.31
2022-10-29T12:03:53.251Z,74406.94
2022-10-29T12:14:08.027Z,74374.56
2022-10-29T12:24:39.450Z,74376.59
2022-10-29T12:34:51.073Z,74374.56
2022-10-29T12:45:22.423Z,74382.66
2022-10-29T12:55:32.683Z,74382.66
2022-10-29T13:05:45.593Z,74382.66
2022-10-29T13:16:21.343Z,74348.25
2022-10-29T13:26:55.015Z,74358.38
2022-10-29T13:37:37.753Z,74390.75
2022-10-29T13:47:40.673Z,74415.03
2022-10-29T13:58:00.911Z,74439.31
2022-10-29T14:08:35.633Z,74471.66
2022-10-29T14:18:42.615Z,74491.91
2022-10-29T14:28:49.288Z,74520.22
2022-10-29T14:38:57.220Z,74536.41
2022-10-29T14:49:15.617Z,74570.81
2022-10-29T14:59:25.072Z,74597.09
2022-10-29T15:09:33.624Z,74623.41
2022-10-29T15:19:44.036Z,74639.59
2022-10-29T15:29:49.055Z,74669.94
2022-10-29T15:39:57.290Z,74684.09
2022-10-29T15:49:59.243Z,74690.19
2022-10-29T16:00:08.313Z,74686.13
2022-10-29T16:10:22.246Z,74698.28
2022-10-29T16:20:27.599Z,74722.56
2022-10-29T16:30:33.112Z,74720.53
2022-10-29T16:40:36.147Z,74726.59
2022-10-29T16:50:40.430Z,74750.88
2022-10-29T17:00:45.183Z,74748.84
2022-10-29T17:10:49.941Z,74756.94
2022-10-29T17:20:59.674Z,74773.13
2022-10-29T17:31:08.137Z,74787.28
2022-10-29T17:41:13.490Z,74783.25
2022-10-29T17:51:19.118Z,74783.25
2022-10-29T18:01:23.552Z,74791.34
2022-10-29T18:11:32.110Z,74809.56
2022-10-29T18:21:36.620Z,74821.69
2022-10-29T18:31:47.019Z,74848.00
2022-10-29T18:41:51.583Z,74862.16
2022-10-29T18:51:55.216Z,74880.38
2022-10-29T19:01:59.585Z,74900.59
2022-10-29T19:12:04.073Z,74922.88
2022-10-29T19:22:08.926Z,74939.06
2022-10-29T19:32:18.399Z,74945.13
2022-10-29T19:42:23.083Z,74961.31
2022-10-29T19:52:28.415Z,74959.28
2022-10-29T20:02:34.304Z,74957.25
2022-10-29T20:12:37.685Z,74977.50
2022-10-29T20:22:41.912Z,74969.41
2022-10-29T20:32:44.784Z,74987.63
2022-10-29T20:42:49.986Z,74989.63
2022-10-29T20:52:54.451Z,74997.72
2022-10-29T21:02:59.424Z,75001.78
2022-10-29T21:13:09.127Z,75013.91
2022-10-29T21:23:12.298Z,74987.63
2022-10-29T21:33:14.684Z,74959.28
2022-10-29T21:43:17.729Z,74961.31
2022-10-29T21:53:22.994Z,74977.50
2022-10-29T22:03:25.187Z,75005.81
2022-10-29T22:13:34.098Z,74995.72
2022-10-29T22:23:38.272Z,74993.69
2022-10-29T22:33:45.199Z,74965.34
2022-10-29T22:43:49.629Z,74953.22
2022-10-29T22:53:52.541Z,74977.50
2022-10-29T23:03:55.917Z,75003.81
2022-10-29T23:14:00.040Z,75022.00
2022-10-29T23:24:05.687Z,74945.13
2022-10-29T23:34:13.873Z,74997.72
2022-10-29T23:44:16.004Z,75011.91
2022-10-29T23:54:18.744Z,75017.97
